createdAt,value
2022-09-11T07:00:21.937Z,100311.72
2022-09-11T07:02:53.004Z,100320.16
2022-09-11T07:05:22.405Z,100321.56
2022-09-11T07:07:53.796Z,100325.63
2022-09-11T07:10:22.705Z,100327.06
2022-09-11T07:12:55.934Z,100307.41
2022-09-11T07:15:25.758Z,100313.66
2022-09-11T07:17:55.372Z,100315.97
2022-09-11T07:20:23.850Z,100313.88
2022-09-11T07:22:52.243Z,100323.63
2022-09-11T07:25:22.297Z,100326.59
2022-09-11T07:27:51.914Z,100335.63
2022-09-11T07:30:21.677Z,100335.13
2022-09-11T07:32:55.309Z,100336.38
2022-09-11T07:35:23.612Z,100336.53
2022-09-11T07:37:54.307Z,100336.06
2022-09-11T07:40:26.790Z,100340.16
2022-09-11T07:42:55.278Z,100347.47
2022-09-11T07:45:24.300Z,100341.28
2022-09-11T07:47:55.743Z,100351.63
2022-09-11T07:50:24.432Z,100352.81
2022-09-11T07:52:53.295Z,100361.03
2022-09-11T07:55:22.748Z,100363.59
2022-09-11T07:57:54.110Z,100352.31
2022-09-11T08:00:24.493Z,100362.63
2022-09-11T08:03:03.830Z,100361.09
2022-09-11T08:05:36.225Z,100364.66
2022-09-11T08:08:04.851Z,100364.09
2022-09-11T08:10:34.326Z,100354.31
2022-09-11T08:13:09.327Z,100368.41
2022-09-11T08:15:38.815Z,100373.06
2022-09-11T08:18:10.390Z,100362.59
2022-09-11T08:20:38.879Z,100368.50
2022-09-11T08:23:07.319Z,100363.47
2022-09-11T08:25:36.975Z,100364.41
2022-09-11T08:28:06.725Z,100368.34
2022-09-11T08:30:38.236Z,100360.09
2022-09-11T08:33:09.498Z,100365.78
2022-09-11T08:35:38.495Z,100369.75
2022-09-11T08:38:06.897Z,100373.22
2022-09-11T08:40:39.666Z,100372.47
2022-09-11T08:43:19.473Z,100379.81
2022-09-11T08:45:49.374Z,100380.03
2022-09-11T08:48:25.073Z,100386.72
2022-09-11T08:50:53.598Z,100370.56
2022-09-11T08:53:23.034Z,100379.91
2022-09-11T08:55:59.465Z,100381.00
2022-09-11T08:58:36.833Z,100379.44
2022-09-11T09:01:15.192Z,100377.84
2022-09-11T09:04:10.547Z,100393.06
2022-09-11T09:06:55.648Z,100385.31
2022-09-11T09:09:35.587Z,100390.81
2022-09-11T09:12:17.548Z,100394.84
2022-09-11T09:15:10.170Z,100392.16
2022-09-11T09:17:42.324Z,100396.63
2022-09-11T09:20:21.123Z,100397.03
2022-09-11T09:22:56.154Z,100401.53
2022-09-11T09:25:27.437Z,100400.03
2022-09-11T09:28:04.899Z,100397.75
2022-09-11T09:30:44.127Z,100404.88
2022-09-11T09:33:28.228Z,100401.81
2022-09-11T09:36:01.217Z,100405.56
2022-09-11T09:38:31.450Z,100399.78
2022-09-11T09:41:49.876Z,100403.59
2022-09-11T09:44:34.221Z,100409.50
2022-09-11T09:47:02.564Z,100406.06
2022-09-11T09:49:35.368Z,100411.69
2022-09-11T09:52:18.875Z,100408.25
2022-09-11T09:54:57.394Z,100408.41
2022-09-11T09:57:28.662Z,100413.84
2022-09-11T10:00:06.335Z,100414.91
2022-09-11T10:02:45.524Z,100409.31
2022-09-11T10:05:21.364Z,100416.09
2022-09-11T10:07:54.234Z,100409.78
2022-09-11T10:10:29.550Z,100411.03
2022-09-11T10:13:18.489Z,100410.97
2022-09-11T10:15:50.617Z,100412.53
2022-09-11T10:18:40.132Z,100408.47
2022-09-11T10:21:26.064Z,100405.19
2022-09-11T10:23:58.411Z,100411.56
2022-09-11T10:26:32.619Z,100405.59
2022-09-11T10:29:07.749Z,100403.91
2022-09-11T10:31:40.417Z,100401.06
2022-09-11T10:34:15.874Z,100399.38
2022-09-11T10:36:54.940Z,100404.69
2022-09-11T10:39:27.406Z,100399.06
2022-09-11T10:42:02.092Z,100395.78
2022-09-11T10:44:31.367Z,100396.47
2022-09-11T10:47:06.959Z,100391.94
2022-09-11T10:49:36.050Z,100388.91
2022-09-11T10:52:18.891Z,100389.97
2022-09-11T10:55:00.633Z,100398.00
2022-09-11T10:57:34.711Z,100389.47
2022-09-11T11:00:09.824Z,100387.63
2022-09-11T11:02:42.262Z,100396.06
2022-09-11T11:05:24.551Z,100394.56
2022-09-11T11:08:27.465Z,100394.56
2022-09-11T11:11:18.729Z,100400.66
2022-09-11T11:14:27.156Z,100404.56
2022-09-11T11:17:06.495Z,100396.94
2022-09-11T11:19:56.730Z,100403.22
2022-09-11T11:22:59.317Z,100403.22
2022-09-11T11:25:37.907Z,100411.28
2022-09-11T11:28:25.033Z,100400.94
2022-09-11T11:31:08.900Z,100406.50
2022-09-11T11:34:18.313Z,100398.69
2022-09-11T11:36:52.314Z,100404.97
2022-09-11T11:39:26.089Z,100399.44
2022-09-11T11:42:09.701Z,100412.06
2022-09-11T11:44:46.587Z,100407.88
2022-09-11T11:47:18.208Z,100411.91
2022-09-11T11:50:00.151Z,100403.78
2022-09-11T11:52:42.319Z,100404.91
2022-09-11T11:55:20.695Z,100408.59
2022-09-11T11:57:59.489Z,100403.50
2022-09-11T12:00:31.643Z,100412.88
2022-09-11T12:03:07.634Z,100413.22
2022-09-11T12:05:37.531Z,100406.38
2022-09-11T12:08:13.250Z,100404.47
2022-09-11T12:10:45.990Z,100402.56
2022-09-11T12:13:17.563Z,100405.78
2022-09-11T12:16:14.950Z,100405.34
2022-09-11T12:19:04.160Z,100407.34
2022-09-11T12:22:11.143Z,100399.69
2022-09-11T12:24:58.811Z,100402.44
2022-09-11T12:28:11.339Z,100402.44
2022-09-11T12:31:05.556Z,100404.47
2022-09-11T12:33:58.218Z,100399.50
2022-09-11T12:36:47.762Z,100395.41
2022-09-11T12:39:27.302Z,100395.25
2022-09-11T12:42:57.047Z,100397.66
2022-09-11T12:45:37.234Z,100396.66
2022-09-11T12:48:13.565Z,100392.41
2022-09-11T12:50:50.380Z,100392.41
2022-09-11T12:53:25.532Z,100388.84
2022-09-11T12:56:00.631Z,100391.38
2022-09-11T12:58:37.486Z,100385.91
2022-09-11T13:01:18.955Z,100390.72
2022-09-11T13:03:58.437Z,100386.94
2022-09-11T13:06:40.758Z,100381.97
2022-09-11T13:09:19.457Z,100373.06
2022-09-11T13:11:50.509Z,100373.38
2022-09-11T13:14:52.140Z,100370.38
2022-09-11T13:17:30.373Z,100368.69
2022-09-11T13:20:21.957Z,100377.16
2022-09-11T13:22:56.198Z,100372.88
2022-09-11T13:25:28.041Z,100363.66
2022-09-11T13:28:01.282Z,100359.31
2022-09-11T13:30:30.086Z,100363.75
2022-09-11T13:33:07.456Z,100358.88
2022-09-11T13:35:40.348Z,100359.97
2022-09-11T13:38:11.999Z,100352.91
2022-09-11T13:40:47.553Z,100349.94
2022-09-11T13:43:21.317Z,100353.59
2022-09-11T13:45:50.140Z,100346.22
2022-09-11T13:48:23.284Z,100345.94
2022-09-11T13:50:53.847Z,100344.91
2022-09-11T13:53:23.928Z,100348.00
2022-09-11T13:55:52.388Z,100348.19
2022-09-11T13:58:26.199Z,100345.38
2022-09-11T14:00:55.957Z,100345.53
2022-09-11T14:03:28.828Z,100343.31
2022-09-11T14:06:00.887Z,100336.84
2022-09-11T14:08:34.372Z,100332.50
2022-09-11T14:11:11.076Z,100332.88
2022-09-11T14:13:45.872Z,100330.06
2022-09-11T14:16:26.753Z,100326.88
2022-09-11T14:19:00.296Z,100330.63
2022-09-11T14:21:35.650Z,100326.50
2022-09-11T14:24:07.322Z,100319.00
2022-09-11T14:26:42.993Z,100332.06
2022-09-11T14:29:25.944Z,100328.00
2022-09-11T14:31:55.953Z,100323.53
2022-09-11T14:34:27.808Z,100321.03
2022-09-11T14:37:03.913Z,100315.59
2022-09-11T14:39:38.865Z,100314.50
2022-09-11T14:42:09.158Z,100319.53
2022-09-11T14:44:39.482Z,100315.13
2022-09-11T14:47:10.413Z,100325.88
2022-09-11T14:49:38.823Z,100314.13
2022-09-11T14:52:08.611Z,100318.06
2022-09-11T14:54:37.513Z,100320.78
2022-09-11T14:57:15.248Z,100312.94
2022-09-11T14:59:46.984Z,100311.91
2022-09-11T15:02:18.981Z,100318.63
2022-09-11T15:04:47.891Z,100310.34
2022-09-11T15:07:19.781Z,100320.16
2022-09-11T15:09:48.210Z,100305.22
2022-09-11T15:12:16.940Z,100306.59
2022-09-11T15:14:59.409Z,100307.88
2022-09-11T15:17:31.606Z,100302.06
2022-09-11T15:20:01.177Z,100270.81
2022-09-11T15:22:31.382Z,100302.63
2022-09-11T15:25:00.000Z,100307.13
2022-09-11T15:27:28.555Z,100299.81
2022-09-11T15:29:56.908Z,100298.13
2022-09-11T15:32:25.388Z,100298.28
2022-09-11T15:34:54.859Z,100298.44
2022-09-11T15:37:25.464Z,100291.47
2022-09-11T15:39:55.307Z,100291.31
2022-09-11T15:42:23.811Z,100284.31
2022-09-11T15:44:52.757Z,100290.69
2022-09-11T15:47:22.137Z,100287.56
2022-09-11T15:49:50.639Z,100287.25
2022-09-11T15:52:19.515Z,100286.59
2022-09-11T15:54:48.858Z,100280.84
2022-09-11T15:57:18.899Z,100278.88
2022-09-11T15:59:47.258Z,100280.53
2022-09-11T16:02:15.624Z,100276.78
2022-09-11T16:04:44.078Z,100282.84
2022-09-11T16:07:12.508Z,100284.13
2022-09-11T16:09:40.957Z,100278.50
2022-09-11T16:12:09.495Z,100284.56
2022-09-11T16:14:39.393Z,100285.31
2022-09-11T16:17:09.155Z,100291.19
2022-09-11T16:19:38.618Z,100284.72
2022-09-11T16:22:08.884Z,100288.38
2022-09-11T16:24:38.098Z,100285.75
2022-09-11T16:27:09.219Z,100286.53
2022-09-11T16:32:31.971Z,100286.69
2022-09-11T16:35:00.368Z,100285.84
2022-09-11T16:37:31.079Z,100277.03
2022-09-11T16:39:59.383Z,100277.03
2022-09-11T16:42:27.856Z,100278.66
2022-09-11T16:44:57.585Z,100287.72
2022-09-11T16:47:26.005Z,100282.75
2022-09-11T16:50:10.023Z,100283.16
2022-09-11T16:52:39.106Z,100283.25
2022-09-11T16:55:09.599Z,100280.84
2022-09-11T16:57:38.639Z,100278.44
2022-09-11T17:00:11.185Z,100276.22
2022-09-11T17:02:39.553Z,100268.94
2022-09-11T17:05:09.271Z,100277.88
2022-09-11T17:07:37.699Z,100282.44
2022-09-11T17:10:06.852Z,100268.66
2022-09-11T17:12:35.256Z,100274.09
2022-09-11T17:15:03.810Z,100272.72
2022-09-11T17:17:33.527Z,100274.72
2022-09-11T17:20:02.017Z,100277.44
2022-09-11T17:22:30.404Z,100276.75
2022-09-11T17:24:58.706Z,100273.50
2022-09-11T17:27:27.483Z,100280.78
2022-09-11T17:29:55.911Z,100281.25
2022-09-11T17:32:28.204Z,100280.59
2022-09-11T17:34:59.442Z,100274.72
2022-09-11T17:37:28.527Z,100266.34
2022-09-11T17:39:57.965Z,100270.03
2022-09-11T17:42:30.313Z,100272.81
2022-09-11T17:44:58.755Z,100278.31
2022-09-11T17:47:30.991Z,100281.25
2022-09-11T17:50:01.497Z,100285.03
2022-09-11T17:52:31.446Z,100277.44
2022-09-11T17:54:59.751Z,100284.56
2022-09-11T17:57:28.391Z,100284.00
2022-09-11T17:59:56.693Z,100284.22
2022-09-11T18:02:25.272Z,100278.19
2022-09-11T18:04:53.752Z,100283.66
2022-09-11T18:07:23.407Z,100282.97
2022-09-11T18:09:56.115Z,100283.97
2022-09-11T18:12:26.062Z,100287.75
2022-09-11T18:14:56.943Z,100293.94
2022-09-11T18:17:25.228Z,100288.94
2022-09-11T18:19:53.498Z,100290.94
2022-09-11T18:22:23.340Z,100300.00
2022-09-11T18:24:52.135Z,100296.88
2022-09-11T18:27:20.699Z,100298.59
2022-09-11T18:29:50.119Z,100302.28
2022-09-11T18:32:19.943Z,100304.25
2022-09-11T18:34:49.702Z,100305.34
2022-09-11T18:37:18.264Z,100304.53
2022-09-11T18:39:48.314Z,100301.06
2022-09-11T18:42:18.077Z,100307.41
2022-09-11T18:44:46.412Z,100299.63
2022-09-11T18:47:14.806Z,100310.09
2022-09-11T18:49:43.951Z,100310.94
2022-09-11T18:52:14.596Z,100318.13
2022-09-11T18:54:42.918Z,100312.28
2022-09-11T18:57:12.582Z,100323.00
2022-09-11T18:59:40.886Z,100317.88
